Terminal Aerodrome Forecast
Issued by NWS

Home | Current Version | Previous Version | Text Only | Print | Product List | Glossary On
Versions: 1 2 3 4 5 6 7 8 9 10 11 12 13 14 15
000
FTUS43 KJKL 211100
TAFSME
TAF
KSME 211136Z 2112/2212 VRB04KT P6SM SCT250
     FM211700 24006KT P6SM BKN050
     FM220100 26008KT P6SM VCSH SCT030 BKN050
     FM220800 27009KT 4SM -SHRA BR VCTS BKN030CB OVC050=

USA.gov is the U.S. government's official web portal to all federal, state and local government web resources and services.